createdAt,value
2022-09-14T00:01:26.317Z,99238.09
2022-09-14T00:06:28.707Z,99231.78
2022-09-14T00:11:31.104Z,99217.56
2022-09-14T00:16:34.006Z,99226.31
2022-09-14T00:21:37.266Z,99225.50
2022-09-14T00:26:38.625Z,99210.44
2022-09-14T00:31:40.198Z,99213.19
2022-09-14T00:36:44.668Z,99209.91
2022-09-14T00:41:46.801Z,99206.84
2022-09-14T00:46:49.634Z,99202.78
2022-09-14T00:51:54.804Z,99203.06
2022-09-14T00:56:57.756Z,99198.13
2022-09-14T01:01:59.174Z,99192.09
2022-09-14T01:07:27.010Z,99190.19
2022-09-14T01:13:06.468Z,99192.09
2022-09-14T01:18:20.892Z,99194.56
2022-09-14T01:23:49.109Z,99194.31
2022-09-14T01:28:56.725Z,99186.09
2022-09-14T01:34:07.465Z,99179.25
2022-09-14T01:39:09.327Z,99175.44
2022-09-14T01:44:13.453Z,99179.78
2022-09-14T01:49:16.269Z,99182.25
2022-09-14T01:54:30.989Z,99173.25
2022-09-14T01:59:35.401Z,99168.00
2022-09-14T02:05:05.328Z,99153.50
2022-09-14T02:10:09.072Z,99149.09
2022-09-14T02:15:11.344Z,99142.84
2022-09-14T02:20:26.159Z,99146.41
2022-09-14T02:25:27.523Z,99148.84
2022-09-14T02:30:29.525Z,99139.56
2022-09-14T02:35:43.461Z,99121.47
2022-09-14T02:40:54.510Z,99132.66
2022-09-14T02:46:18.586Z,99126.13
2022-09-14T02:51:39.571Z,99133.25
2022-09-14T02:56:40.922Z,99122.31
2022-09-14T03:01:42.319Z,99135.16
2022-09-14T03:06:43.719Z,99134.09
2022-09-14T03:11:45.076Z,99138.44
2022-09-14T03:16:46.432Z,99141.19
2022-09-14T03:21:47.785Z,99133.81
2022-09-14T03:26:52.030Z,99130.81
2022-09-14T03:31:53.451Z,99136.53
2022-09-14T03:36:54.859Z,99140.34
2022-09-14T03:41:56.216Z,99131.88
2022-09-14T03:46:58.528Z,99130.78
2022-09-14T03:52:00.625Z,99121.50
2022-09-14T03:57:01.982Z,99111.34
2022-09-14T04:02:03.384Z,99104.25
2022-09-14T04:07:04.873Z,99099.81
2022-09-14T04:12:06.500Z,99100.41
2022-09-14T04:17:07.852Z,99094.34
2022-09-14T04:22:09.228Z,99085.09
2022-09-14T04:27:11.160Z,99080.97
2022-09-14T04:32:12.529Z,99084.00
2022-09-14T04:37:13.897Z,99086.72
2022-09-14T04:42:15.268Z,99071.41
2022-09-14T04:47:16.646Z,99053.88
2022-09-14T04:52:18.075Z,99064.56
2022-09-14T04:57:19.457Z,99066.47
2022-09-14T05:02:21.064Z,99072.19
2022-09-14T05:07:22.560Z,99073.56
2022-09-14T05:12:23.930Z,99071.41
2022-09-14T05:17:25.293Z,99062.94
2022-09-14T05:22:26.649Z,99053.06
2022-09-14T05:27:28.016Z,99059.91
2022-09-14T05:32:29.368Z,99063.41
2022-09-14T05:37:30.725Z,99065.91
2022-09-14T05:42:32.085Z,99061.28
2022-09-14T05:47:38.360Z,99063.44
2022-09-14T05:52:40.440Z,99066.97
2022-09-14T05:57:41.835Z,99064.81
2022-09-14T06:02:49.941Z,99049.50
2022-09-14T06:07:52.478Z,99064.84
2022-09-14T06:12:55.560Z,99059.38
2022-09-14T06:17:57.174Z,99045.69
2022-09-14T06:22:58.541Z,99051.16
2022-09-14T06:27:59.925Z,99057.44
2022-09-14T06:33:01.285Z,99046.47
2022-09-14T06:38:02.652Z,99060.44
2022-09-14T06:43:04.008Z,99063.19
2022-09-14T06:48:05.366Z,99064.53
2022-09-14T06:53:06.734Z,99064.56
2022-09-14T06:58:09.393Z,99067.00
2022-09-14T07:03:10.824Z,99069.19
2022-09-14T07:08:12.605Z,99066.41
2022-09-14T07:13:13.996Z,99072.72
2022-09-14T07:18:15.445Z,99059.28
2022-09-14T07:23:16.820Z,99055.97
2022-09-14T07:28:18.185Z,99043.91
2022-09-14T07:33:19.565Z,99045.56
2022-09-14T07:38:35.592Z,99051.81
2022-09-14T07:43:42.328Z,99045.25
2022-09-14T07:48:43.772Z,99047.16
2022-09-14T07:53:45.832Z,99043.31
2022-09-14T07:58:50.442Z,99052.66
2022-09-14T08:03:55.441Z,99061.16
2022-09-14T08:08:57.010Z,99040.59
2022-09-14T08:13:59.452Z,99028.88
2022-09-14T08:19:02.362Z,99040.06
2022-09-14T08:24:04.132Z,99040.91
2022-09-14T08:29:05.742Z,99043.41
2022-09-14T08:34:07.169Z,99041.78
2022-09-14T08:39:10.221Z,99047.53
2022-09-14T08:44:11.408Z,99045.31
2022-09-14T08:49:29.965Z,99045.31
2022-09-14T08:54:32.957Z,99039.28
2022-09-14T08:59:48.697Z,99035.19
2022-09-14T09:05:25.533Z,99037.66
2022-09-14T09:10:27.076Z,99029.69
2022-09-14T09:15:37.646Z,99044.47
2022-09-14T09:20:40.835Z,99045.53
2022-09-14T09:26:05.898Z,99048.56
2022-09-14T09:31:11.409Z,99039.47
2022-09-14T09:36:14.825Z,99026.78
2022-09-14T09:41:19.313Z,99024.41
2022-09-14T09:46:20.728Z,99039.47
2022-09-14T09:51:24.755Z,99034.03
2022-09-14T09:56:28.780Z,99022.66
2022-09-14T10:01:32.450Z,99011.75
2022-09-14T10:06:44.357Z,99010.13
2022-09-14T10:11:46.561Z,99000.56
2022-09-14T10:16:47.916Z,98999.41
2022-09-14T10:22:02.725Z,99005.91
2022-09-14T10:27:37.127Z,99010.16
2022-09-14T10:32:40.537Z,99001.88
2022-09-14T10:37:57.977Z,98996.88
2022-09-14T10:43:17.090Z,98994.44
2022-09-14T10:48:36.543Z,99010.84
2022-09-14T10:53:56.641Z,99027.88
2022-09-14T10:59:20.424Z,99020.50
2022-09-14T11:04:41.898Z,99026.72
2022-09-14T11:09:52.329Z,99007.91
2022-09-14T11:15:03.081Z,99007.78
2022-09-14T11:20:08.192Z,98994.59
2022-09-14T11:25:24.111Z,98978.72
2022-09-14T11:30:38.005Z,98971.31
2022-09-14T11:36:09.813Z,98984.72
2022-09-14T11:41:30.918Z,98967.75
2022-09-14T11:46:40.607Z,98951.59
2022-09-14T11:51:49.308Z,98953.22
2022-09-14T11:56:53.584Z,98967.75
2022-09-14T12:01:54.950Z,98962.81
2022-09-14T12:06:56.361Z,98957.63
2022-09-14T12:12:00.562Z,98955.72
2022-09-14T12:17:40.505Z,98956.25
2022-09-14T12:22:43.462Z,98952.59
2022-09-14T12:27:47.854Z,98936.66
2022-09-14T12:32:49.213Z,98919.75
2022-09-14T12:37:50.572Z,98928.31
2022-09-14T12:42:51.987Z,98940.88
2022-09-14T12:47:53.345Z,98928.59
2022-09-14T12:53:08.356Z,98927.25
2022-09-14T12:58:23.929Z,98916.56
2022-09-14T13:03:42.097Z,98913.81
2022-09-14T13:08:45.044Z,98899.28
2022-09-14T13:13:46.405Z,98891.38
2022-09-14T13:18:48.101Z,98892.97
2022-09-14T13:23:49.638Z,98895.13
2022-09-14T13:28:53.439Z,98921.72
2022-09-14T13:33:54.932Z,98909.66
2022-09-14T13:38:56.334Z,98895.03
2022-09-14T13:43:57.924Z,98894.88
2022-09-14T13:48:59.289Z,98887.75
2022-09-14T13:54:28.553Z,98873.56
2022-09-14T13:59:29.913Z,98872.13
2022-09-14T14:04:36.153Z,98871.22
2022-09-14T14:09:45.337Z,98874.31
2022-09-14T14:14:55.904Z,98861.38
2022-09-14T14:19:58.510Z,98853.03
2022-09-14T14:25:13.411Z,98864.44
2022-09-14T14:30:17.992Z,98848.78
2022-09-14T14:35:22.342Z,98844.69
2022-09-14T14:40:24.015Z,98843.75
2022-09-14T14:45:26.363Z,98844.59
2022-09-14T14:50:30.164Z,98846.53
2022-09-14T14:55:31.814Z,98847.34
2022-09-14T15:00:34.294Z,98853.03
2022-09-14T15:05:39.596Z,98840.44
2022-09-14T15:10:40.981Z,98839.06
2022-09-14T15:15:43.030Z,98841.16
2022-09-14T15:20:44.416Z,98844.72
2022-09-14T15:25:45.788Z,98834.13
2022-09-14T15:30:47.148Z,98832.28
2022-09-14T15:35:54.614Z,98846.63
2022-09-14T15:40:56.005Z,98836.97
2022-09-14T15:46:03.885Z,98829.59
2022-09-14T15:51:09.633Z,98826.03
2022-09-14T15:56:14.333Z,98826.03
2022-09-14T16:01:16.940Z,98829.94
2022-09-14T16:06:18.500Z,98823.06
2022-09-14T16:11:20.096Z,98821.47
2022-09-14T16:16:21.529Z,98820.91
2022-09-14T16:21:24.508Z,98813.31
2022-09-14T16:26:27.592Z,98808.88
2022-09-14T16:31:33.294Z,98800.44
2022-09-14T16:36:36.701Z,98804.00
2022-09-14T16:41:40.319Z,98809.75
2022-09-14T16:46:41.714Z,98800.19
2022-09-14T16:51:43.073Z,98793.09
2022-09-14T16:56:44.464Z,98779.91
2022-09-14T17:01:48.696Z,98770.03
2022-09-14T17:06:54.954Z,98762.66
2022-09-14T17:11:57.003Z,98765.97
2022-09-14T17:16:58.569Z,98766.78
2022-09-14T17:22:00.727Z,98763.53
2022-09-14T17:27:02.624Z,98767.00
2022-09-14T17:32:04.065Z,98761.81
2022-09-14T17:37:05.440Z,98750.34
2022-09-14T17:42:06.804Z,98742.69
2022-09-14T17:47:08.195Z,98731.19
2022-09-14T17:52:09.585Z,98747.41
2022-09-14T17:57:10.981Z,98742.91
2022-09-14T18:02:12.340Z,98731.44
2022-09-14T18:07:13.846Z,98723.53
2022-09-14T18:12:17.625Z,98734.50
2022-09-14T18:17:19.188Z,98734.22
2022-09-14T18:22:20.778Z,98731.75
2022-09-14T18:27:22.180Z,98726.59
2022-09-14T18:32:23.678Z,98705.78
2022-09-14T18:37:25.065Z,98725.72
2022-09-14T18:42:26.424Z,98730.72
2022-09-14T18:47:28.492Z,98726.53
2022-09-14T18:52:29.881Z,98735.16
2022-09-14T18:57:31.240Z,98729.38
2022-09-14T19:02:32.670Z,98740.53
2022-09-14T19:07:35.629Z,98729.00
2022-09-14T19:12:36.996Z,98719.47
2022-09-14T19:17:38.561Z,98712.88
2022-09-14T19:22:39.964Z,98705.16
2022-09-14T19:27:41.408Z,98711.28
2022-09-14T19:32:42.761Z,98718.88
2022-09-14T19:37:44.126Z,98703.81
2022-09-14T19:42:45.562Z,98702.72
2022-09-14T19:47:46.956Z,98698.63
2022-09-14T19:52:48.581Z,98686.94
2022-09-14T19:57:49.943Z,98687.94
2022-09-14T20:02:51.387Z,98675.38
2022-09-14T20:07:53.021Z,98669.06
2022-09-14T20:12:54.376Z,98667.97
2022-09-14T20:17:55.976Z,98660.03
2022-09-14T20:22:57.345Z,98673.97
2022-09-14T20:27:58.704Z,98690.94
2022-09-14T20:33:00.073Z,98686.91
2022-09-14T20:38:01.433Z,98687.16
2022-09-14T20:43:02.800Z,98685.56
2022-09-14T20:48:04.208Z,98684.13
2022-09-14T20:53:06.092Z,98674.81
2022-09-14T20:58:07.448Z,98677.53
2022-09-14T21:03:10.296Z,98683.28
2022-09-14T21:08:11.664Z,98696.41
2022-09-14T21:13:13.280Z,98706.59
2022-09-14T21:18:19.947Z,98718.94
2022-09-14T21:23:22.042Z,98716.47
2022-09-14T21:28:23.504Z,98705.44
2022-09-14T21:33:24.860Z,98717.84
2022-09-14T21:38:26.224Z,98731.28
2022-09-14T21:43:27.688Z,98747.19
2022-09-14T21:48:29.045Z,98751.28
2022-09-14T21:53:30.416Z,98740.28
2022-09-14T21:58:31.902Z,98754.00
2022-09-14T22:03:33.256Z,98735.06
2022-09-14T22:08:35.108Z,98731.53
2022-09-14T22:13:36.577Z,98739.75
2022-09-14T22:18:38.587Z,98732.41
2022-09-14T22:23:39.952Z,98747.72
2022-09-14T22:28:41.332Z,98747.41
2022-09-14T22:33:42.749Z,98755.97
2022-09-14T22:38:44.109Z,98752.66
2022-09-14T22:43:45.589Z,98749.09
2022-09-14T22:48:47.677Z,98761.19
2022-09-14T22:53:49.189Z,98766.91
2022-09-14T22:58:50.575Z,98775.13
2022-09-14T23:04:06.625Z,98777.59
2022-09-14T23:09:09.226Z,98779.47
2022-09-14T23:14:11.753Z,98761.13
2022-09-14T23:19:15.070Z,98755.41
2022-09-14T23:24:16.536Z,98767.50
2022-09-14T23:29:17.912Z,98768.53
2022-09-14T23:34:19.264Z,98787.16
2022-09-14T23:39:20.692Z,98777.34
2022-09-14T23:44:22.056Z,98782.78
2022-09-14T23:49:23.424Z,98787.44
2022-09-14T23:54:24.792Z,98793.22
2022-09-14T23:59:26.148Z,98795.09
